sensor_id;sensor_type;location;lat;lon;timestamp;temperature;humidity
34147;DHT22;20423;49.448;9.056;2022-12-22T00:01:38;7.30;99.90
34147;DHT22;20423;49.448;9.056;2022-12-22T00:04:22;7.30;99.90
34147;DHT22;20423;49.448;9.056;2022-12-22T00:07:07;7.30;99.90
34147;DHT22;20423;49.448;9.056;2022-12-22T00:09:51;7.30;99.90
34147;DHT22;20423;49.448;9.056;2022-12-22T00:12:35;7.30;99.90
34147;DHT22;20423;49.448;9.056;2022-12-22T00:15:20;7.40;99.90
34147;DHT22;20423;49.448;9.056;2022-12-22T00:18:10;7.40;99.90
34147;DHT22;20423;49.448;9.056;2022-12-22T00:20:56;7.30;99.90
34147;DHT22;20423;49.448;9.056;2022-12-22T00:23:40;7.30;99.90
34147;DHT22;20423;49.448;9.056;2022-12-22T00:26:25;7.30;99.90
34147;DHT22;20423;49.448;9.056;2022-12-22T00:29:13;7.30;99.90
34147;DHT22;20423;49.448;9.056;2022-12-22T00:35:45;7.30;99.90
34147;DHT22;20423;49.448;9.056;2022-12-22T00:38:29;7.40;99.90
34147;DHT22;20423;49.448;9.056;2022-12-22T00:41:14;7.30;99.90
34147;DHT22;20423;49.448;9.056;2022-12-22T00:43:58;7.30;99.90
34147;DHT22;20423;49.448;9.056;2022-12-22T00:46:43;7.30;99.90
34147;DHT22;20423;49.448;9.056;2022-12-22T00:49:30;7.30;99.90
34147;DHT22;20423;49.448;9.056;2022-12-22T00:52:15;7.30;99.90
34147;DHT22;20423;49.448;9.056;2022-12-22T00:55:02;7.30;99.90
34147;DHT22;20423;49.448;9.056;2022-12-22T00:57:47;7.30;99.90
34147;DHT22;20423;49.448;9.056;2022-12-22T01:00:31;7.30;99.90
34147;DHT22;20423;49.448;9.056;2022-12-22T01:03:15;7.30;99.90
34147;DHT22;20423;49.448;9.056;2022-12-22T01:06:01;7.30;99.90
34147;DHT22;20423;49.448;9.056;2022-12-22T01:08:46;7.20;99.90
34147;DHT22;20423;49.448;9.056;2022-12-22T01:11:32;7.20;99.90
34147;DHT22;20423;49.448;9.056;2022-12-22T01:14:16;7.20;99.90
34147;DHT22;20423;49.448;9.056;2022-12-22T01:17:01;7.20;99.90
34147;DHT22;20423;49.448;9.056;2022-12-22T01:19:45;7.20;99.90
34147;DHT22;20423;49.448;9.056;2022-12-22T01:22:30;7.20;99.90
34147;DHT22;20423;49.448;9.056;2022-12-22T01:25:32;7.20;99.90
34147;DHT22;20423;49.448;9.056;2022-12-22T01:28:17;7.20;99.90
34147;DHT22;20423;49.448;9.056;2022-12-22T01:31:26;7.20;99.90
34147;DHT22;20423;49.448;9.056;2022-12-22T01:34:11;7.20;99.90
34147;DHT22;20423;49.448;9.056;2022-12-22T01:36:55;7.20;99.90
34147;DHT22;20423;49.448;9.056;2022-12-22T01:39:39;7.20;99.90
34147;DHT22;20423;49.448;9.056;2022-12-22T01:42:23;7.20;99.90
34147;DHT22;20423;49.448;9.056;2022-12-22T01:48:06;7.20;99.90
34147;DHT22;20423;49.448;9.056;2022-12-22T01:50:51;7.20;99.90
34147;DHT22;20423;49.448;9.056;2022-12-22T01:53:36;7.20;99.90
34147;DHT22;20423;49.448;9.056;2022-12-22T01:56:26;7.30;99.90
34147;DHT22;20423;49.448;9.056;2022-12-22T01:59:10;7.30;99.90
34147;DHT22;20423;49.448;9.056;2022-12-22T02:01:56;7.30;99.90
34147;DHT22;20423;49.448;9.056;2022-12-22T02:04:44;7.30;99.90
34147;DHT22;20423;49.448;9.056;2022-12-22T02:08:00;7.40;99.90
34147;DHT22;20423;49.448;9.056;2022-12-22T02:14:10;7.50;99.90
34147;DHT22;20423;49.448;9.056;2022-12-22T02:20:13;7.60;99.90
34147;DHT22;20423;49.448;9.056;2022-12-22T02:23:25;7.60;99.90
34147;DHT22;20423;49.448;9.056;2022-12-22T02:29:05;7.60;99.90
34147;DHT22;20423;49.448;9.056;2022-12-22T02:31:50;7.60;99.90
34147;DHT22;20423;49.448;9.056;2022-12-22T02:34:35;7.70;99.90
34147;DHT22;20423;49.448;9.056;2022-12-22T02:40:44;7.70;99.90
34147;DHT22;20423;49.448;9.056;2022-12-22T02:43:38;7.70;99.90
34147;DHT22;20423;49.448;9.056;2022-12-22T02:46:33;7.70;99.90
34147;DHT22;20423;49.448;9.056;2022-12-22T02:49:34;7.60;99.90
34147;DHT22;20423;49.448;9.056;2022-12-22T02:52:27;7.60;99.90
34147;DHT22;20423;49.448;9.056;2022-12-22T02:55:14;7.70;99.90
34147;DHT22;20423;49.448;9.056;2022-12-22T02:57:59;7.70;99.90
34147;DHT22;20423;49.448;9.056;2022-12-22T03:00:44;7.70;99.90
34147;DHT22;20423;49.448;9.056;2022-12-22T03:03:28;7.70;99.90
34147;DHT22;20423;49.448;9.056;2022-12-22T03:06:12;7.80;99.90
34147;DHT22;20423;49.448;9.056;2022-12-22T03:08:57;7.80;99.90
34147;DHT22;20423;49.448;9.056;2022-12-22T03:11:41;7.80;99.90
34147;DHT22;20423;49.448;9.056;2022-12-22T03:14:25;7.80;99.90
34147;DHT22;20423;49.448;9.056;2022-12-22T03:17:09;7.80;99.90
34147;DHT22;20423;49.448;9.056;2022-12-22T03:19:53;7.80;99.90
34147;DHT22;20423;49.448;9.056;2022-12-22T03:22:37;7.80;99.90
34147;DHT22;20423;49.448;9.056;2022-12-22T03:25:22;7.90;99.90
34147;DHT22;20423;49.448;9.056;2022-12-22T03:28:08;7.80;99.90
34147;DHT22;20423;49.448;9.056;2022-12-22T03:30:34;7.80;99.90
34147;DHT22;20423;49.448;9.056;2022-12-22T03:33:00;7.90;99.90
34147;DHT22;20423;49.448;9.056;2022-12-22T03:35:26;7.90;99.90
34147;DHT22;20423;49.448;9.056;2022-12-22T03:37:51;7.90;99.90
34147;DHT22;20423;49.448;9.056;2022-12-22T03:40:17;7.80;99.90
34147;DHT22;20423;49.448;9.056;2022-12-22T03:42:43;7.90;99.90
34147;DHT22;20423;49.448;9.056;2022-12-22T03:45:27;7.80;99.90
34147;DHT22;20423;49.448;9.056;2022-12-22T03:48:12;7.80;99.90
34147;DHT22;20423;49.448;9.056;2022-12-22T03:50:37;7.80;99.90
34147;DHT22;20423;49.448;9.056;2022-12-22T03:53:04;7.80;99.90
34147;DHT22;20423;49.448;9.056;2022-12-22T03:55:30;7.80;99.90
34147;DHT22;20423;49.448;9.056;2022-12-22T03:57:55;7.80;99.90
34147;DHT22;20423;49.448;9.056;2022-12-22T04:00:22;7.80;99.90
34147;DHT22;20423;49.448;9.056;2022-12-22T04:02:47;7.80;99.90
34147;DHT22;20423;49.448;9.056;2022-12-22T04:05:13;7.80;99.90
34147;DHT22;20423;49.448;9.056;2022-12-22T04:07:39;7.80;99.90
34147;DHT22;20423;49.448;9.056;2022-12-22T04:10:05;7.80;99.90
34147;DHT22;20423;49.448;9.056;2022-12-22T04:12:53;7.80;99.90
34147;DHT22;20423;49.448;9.056;2022-12-22T04:15:27;7.80;99.90
34147;DHT22;20423;49.448;9.056;2022-12-22T04:17:54;7.90;99.90
34147;DHT22;20423;49.448;9.056;2022-12-22T04:20:21;7.90;99.90
34147;DHT22;20423;49.448;9.056;2022-12-22T04:22:47;7.80;99.90
34147;DHT22;20423;49.448;9.056;2022-12-22T04:25:13;7.80;99.90
34147;DHT22;20423;49.448;9.056;2022-12-22T04:27:39;7.80;99.90
34147;DHT22;20423;49.448;9.056;2022-12-22T04:30:06;7.80;99.90
34147;DHT22;20423;49.448;9.056;2022-12-22T04:32:32;7.80;99.90
34147;DHT22;20423;49.448;9.056;2022-12-22T04:34:58;7.80;99.90
34147;DHT22;20423;49.448;9.056;2022-12-22T04:37:39;7.80;99.90
34147;DHT22;20423;49.448;9.056;2022-12-22T04:40:05;7.80;99.90
34147;DHT22;20423;49.448;9.056;2022-12-22T04:42:30;7.80;99.90
34147;DHT22;20423;49.448;9.056;2022-12-22T04:44:56;7.80;99.90
34147;DHT22;20423;49.448;9.056;2022-12-22T04:47:22;7.80;99.90
34147;DHT22;20423;49.448;9.056;2022-12-22T04:49:47;7.80;99.90
34147;DHT22;20423;49.448;9.056;2022-12-22T04:52:13;7.80;99.90
34147;DHT22;20423;49.448;9.056;2022-12-22T04:54:39;7.80;99.90
34147;DHT22;20423;49.448;9.056;2022-12-22T04:57:04;7.80;99.90
34147;DHT22;20423;49.448;9.056;2022-12-22T04:59:30;7.80;99.90
34147;DHT22;20423;49.448;9.056;2022-12-22T05:01:55;7.80;99.90
34147;DHT22;20423;49.448;9.056;2022-12-22T05:04:21;7.80;99.90
34147;DHT22;20423;49.448;9.056;2022-12-22T05:06:47;7.80;99.90
34147;DHT22;20423;49.448;9.056;2022-12-22T05:09:12;7.80;99.90
34147;DHT22;20423;49.448;9.056;2022-12-22T05:11:38;7.80;99.90
34147;DHT22;20423;49.448;9.056;2022-12-22T05:14:04;7.80;99.90
34147;DHT22;20423;49.448;9.056;2022-12-22T05:16:30;7.90;99.90
34147;DHT22;20423;49.448;9.056;2022-12-22T05:18:56;7.80;99.90
34147;DHT22;20423;49.448;9.056;2022-12-22T05:21:22;7.90;99.90
34147;DHT22;20423;49.448;9.056;2022-12-22T05:23:48;7.90;99.90
34147;DHT22;20423;49.448;9.056;2022-12-22T05:26:16;7.90;99.90
34147;DHT22;20423;49.448;9.056;2022-12-22T05:28:43;7.90;99.90
34147;DHT22;20423;49.448;9.056;2022-12-22T05:31:16;7.90;99.90
34147;DHT22;20423;49.448;9.056;2022-12-22T05:33:42;7.90;99.90
34147;DHT22;20423;49.448;9.056;2022-12-22T05:36:08;8.00;99.90
34147;DHT22;20423;49.448;9.056;2022-12-22T05:38:34;7.90;99.90
34147;DHT22;20423;49.448;9.056;2022-12-22T05:40:59;7.90;99.90
34147;DHT22;20423;49.448;9.056;2022-12-22T05:43:25;8.00;99.90
34147;DHT22;20423;49.448;9.056;2022-12-22T05:45:50;8.00;99.90
34147;DHT22;20423;49.448;9.056;2022-12-22T05:48:18;8.00;99.90
34147;DHT22;20423;49.448;9.056;2022-12-22T05:50:43;8.00;99.90
34147;DHT22;20423;49.448;9.056;2022-12-22T05:53:09;8.00;99.90
34147;DHT22;20423;49.448;9.056;2022-12-22T05:55:35;8.00;99.90
34147;DHT22;20423;49.448;9.056;2022-12-22T05:58:00;8.00;99.90
34147;DHT22;20423;49.448;9.056;2022-12-22T06:00:28;8.00;99.90
34147;DHT22;20423;49.448;9.056;2022-12-22T06:02:54;8.00;99.90
34147;DHT22;20423;49.448;9.056;2022-12-22T06:05:20;8.00;99.90
34147;DHT22;20423;49.448;9.056;2022-12-22T06:07:45;8.00;99.90
34147;DHT22;20423;49.448;9.056;2022-12-22T06:10:12;8.00;99.90
34147;DHT22;20423;49.448;9.056;2022-12-22T06:12:39;8.00;99.90
34147;DHT22;20423;49.448;9.056;2022-12-22T06:15:05;8.00;99.90
34147;DHT22;20423;49.448;9.056;2022-12-22T06:17:31;8.00;99.90
34147;DHT22;20423;49.448;9.056;2022-12-22T06:19:57;8.10;99.90
34147;DHT22;20423;49.448;9.056;2022-12-22T06:22:23;8.00;99.90
34147;DHT22;20423;49.448;9.056;2022-12-22T06:24:48;8.00;99.90
34147;DHT22;20423;49.448;9.056;2022-12-22T06:27:14;8.10;99.90
34147;DHT22;20423;49.448;9.056;2022-12-22T06:29:40;8.00;99.90
34147;DHT22;20423;49.448;9.056;2022-12-22T06:32:05;8.00;99.90
34147;DHT22;20423;49.448;9.056;2022-12-22T06:34:31;8.00;99.90
34147;DHT22;20423;49.448;9.056;2022-12-22T06:36:57;7.90;99.90
34147;DHT22;20423;49.448;9.056;2022-12-22T06:39:22;8.00;99.90
34147;DHT22;20423;49.448;9.056;2022-12-22T06:41:48;8.00;99.90
34147;DHT22;20423;49.448;9.056;2022-12-22T06:44:32;8.00;99.90
34147;DHT22;20423;49.448;9.056;2022-12-22T06:46:58;8.00;99.90
34147;DHT22;20423;49.448;9.056;2022-12-22T06:49:24;8.00;99.90
34147;DHT22;20423;49.448;9.056;2022-12-22T06:51:49;8.00;99.90
34147;DHT22;20423;49.448;9.056;2022-12-22T06:54:15;8.00;99.90
34147;DHT22;20423;49.448;9.056;2022-12-22T06:56:41;8.00;99.90
34147;DHT22;20423;49.448;9.056;2022-12-22T06:59:06;8.00;99.90
34147;DHT22;20423;49.448;9.056;2022-12-22T07:01:32;7.90;99.90
34147;DHT22;20423;49.448;9.056;2022-12-22T07:03:58;7.90;99.90
34147;DHT22;20423;49.448;9.056;2022-12-22T07:06:23;8.00;99.90
34147;DHT22;20423;49.448;9.056;2022-12-22T07:09:02;7.90;99.90
34147;DHT22;20423;49.448;9.056;2022-12-22T07:11:28;7.90;99.90
34147;DHT22;20423;49.448;9.056;2022-12-22T07:13:54;8.00;99.90
34147;DHT22;20423;49.448;9.056;2022-12-22T07:16:20;7.90;99.90
34147;DHT22;20423;49.448;9.056;2022-12-22T07:18:46;7.90;99.90
34147;DHT22;20423;49.448;9.056;2022-12-22T07:21:12;7.90;99.90
34147;DHT22;20423;49.448;9.056;2022-12-22T07:23:39;7.90;99.90
34147;DHT22;20423;49.448;9.056;2022-12-22T07:26:06;7.90;99.90
34147;DHT22;20423;49.448;9.056;2022-12-22T07:28:34;7.90;99.90
34147;DHT22;20423;49.448;9.056;2022-12-22T07:30:59;7.90;99.90
34147;DHT22;20423;49.448;9.056;2022-12-22T07:36:44;7.90;99.90
34147;DHT22;20423;49.448;9.056;2022-12-22T07:39:11;7.90;99.90
34147;DHT22;20423;49.448;9.056;2022-12-22T07:41:37;7.80;99.90
34147;DHT22;20423;49.448;9.056;2022-12-22T07:44:22;7.80;99.90
34147;DHT22;20423;49.448;9.056;2022-12-22T07:46:48;7.80;99.90
34147;DHT22;20423;49.448;9.056;2022-12-22T07:49:14;7.90;99.90
34147;DHT22;20423;49.448;9.056;2022-12-22T07:51:58;7.80;99.90
34147;DHT22;20423;49.448;9.056;2022-12-22T07:54:25;7.80;99.90
34147;DHT22;20423;49.448;9.056;2022-12-22T07:56:51;7.80;99.90
34147;DHT22;20423;49.448;9.056;2022-12-22T07:59:17;7.80;99.90
34147;DHT22;20423;49.448;9.056;2022-12-22T08:01:43;7.80;99.90
34147;DHT22;20423;49.448;9.056;2022-12-22T08:04:10;7.80;99.90
34147;DHT22;20423;49.448;9.056;2022-12-22T08:06:36;7.80;99.90
34147;DHT22;20423;49.448;9.056;2022-12-22T08:09:04;7.80;99.90
34147;DHT22;20423;49.448;9.056;2022-12-22T08:11:30;7.70;99.90
34147;DHT22;20423;49.448;9.056;2022-12-22T08:13:56;7.70;99.90
34147;DHT22;20423;49.448;9.056;2022-12-22T08:16:22;7.70;99.90
34147;DHT22;20423;49.448;9.056;2022-12-22T08:18:47;7.70;99.90
34147;DHT22;20423;49.448;9.056;2022-12-22T08:21:14;7.80;99.90
34147;DHT22;20423;49.448;9.056;2022-12-22T08:23:40;7.70;99.90
34147;DHT22;20423;49.448;9.056;2022-12-22T08:26:45;7.80;99.90
34147;DHT22;20423;49.448;9.056;2022-12-22T08:29:17;7.70;99.90
34147;DHT22;20423;49.448;9.056;2022-12-22T08:31:43;7.80;99.90
34147;DHT22;20423;49.448;9.056;2022-12-22T08:34:12;7.70;99.90
34147;DHT22;20423;49.448;9.056;2022-12-22T08:36:43;7.70;99.90
34147;DHT22;20423;49.448;9.056;2022-12-22T08:39:11;7.70;99.90
34147;DHT22;20423;49.448;9.056;2022-12-22T08:41:37;7.70;99.90
34147;DHT22;20423;49.448;9.056;2022-12-22T08:44:24;7.70;99.90
34147;DHT22;20423;49.448;9.056;2022-12-22T08:46:51;7.70;99.90
34147;DHT22;20423;49.448;9.056;2022-12-22T08:49:17;7.70;99.90
34147;DHT22;20423;49.448;9.056;2022-12-22T08:51:44;7.70;99.90
34147;DHT22;20423;49.448;9.056;2022-12-22T08:54:10;7.70;99.90
34147;DHT22;20423;49.448;9.056;2022-12-22T08:56:36;7.80;99.90
34147;DHT22;20423;49.448;9.056;2022-12-22T08:59:02;7.80;99.90
34147;DHT22;20423;49.448;9.056;2022-12-22T09:01:31;7.80;99.90
34147;DHT22;20423;49.448;9.056;2022-12-22T09:04:01;7.90;99.90
34147;DHT22;20423;49.448;9.056;2022-12-22T09:06:27;7.80;99.90
34147;DHT22;20423;49.448;9.056;2022-12-22T09:09:00;7.80;99.90
34147;DHT22;20423;49.448;9.056;2022-12-22T09:11:27;7.80;99.90
34147;DHT22;20423;49.448;9.056;2022-12-22T09:13:55;7.80;99.90
34147;DHT22;20423;49.448;9.056;2022-12-22T09:16:23;7.70;99.90
34147;DHT22;20423;49.448;9.056;2022-12-22T09:18:49;7.70;99.90
34147;DHT22;20423;49.448;9.056;2022-12-22T09:21:15;7.70;99.90
34147;DHT22;20423;49.448;9.056;2022-12-22T09:23:41;7.70;99.90
34147;DHT22;20423;49.448;9.056;2022-12-22T09:26:08;7.80;99.90
34147;DHT22;20423;49.448;9.056;2022-12-22T09:28:35;7.80;99.90
34147;DHT22;20423;49.448;9.056;2022-12-22T09:31:01;7.80;99.90
34147;DHT22;20423;49.448;9.056;2022-12-22T09:33:27;7.80;99.90
34147;DHT22;20423;49.448;9.056;2022-12-22T09:35:53;7.70;99.90
34147;DHT22;20423;49.448;9.056;2022-12-22T09:38:18;7.70;99.90
34147;DHT22;20423;49.448;9.056;2022-12-22T09:40:44;7.70;99.90
34147;DHT22;20423;49.448;9.056;2022-12-22T09:43:17;7.70;99.90
34147;DHT22;20423;49.448;9.056;2022-12-22T09:45:46;7.70;99.90
34147;DHT22;20423;49.448;9.056;2022-12-22T09:48:12;7.70;99.90
34147;DHT22;20423;49.448;9.056;2022-12-22T09:50:40;7.80;99.90
34147;DHT22;20423;49.448;9.056;2022-12-22T09:53:18;7.80;99.90
34147;DHT22;20423;49.448;9.056;2022-12-22T09:55:46;7.70;99.90
34147;DHT22;20423;49.448;9.056;2022-12-22T09:58:31;7.70;99.90
34147;DHT22;20423;49.448;9.056;2022-12-22T10:01:01;7.70;99.90
34147;DHT22;20423;49.448;9.056;2022-12-22T10:03:42;7.80;99.90
34147;DHT22;20423;49.448;9.056;2022-12-22T10:08:38;7.80;99.90
34147;DHT22;20423;49.448;9.056;2022-12-22T10:11:06;7.80;99.90
34147;DHT22;20423;49.448;9.056;2022-12-22T10:13:32;7.80;99.90
34147;DHT22;20423;49.448;9.056;2022-12-22T10:15:58;7.80;99.90
34147;DHT22;20423;49.448;9.056;2022-12-22T10:18:28;7.70;99.90
34147;DHT22;20423;49.448;9.056;2022-12-22T10:21:13;7.70;99.90
34147;DHT22;20423;49.448;9.056;2022-12-22T10:23:43;7.70;99.90
34147;DHT22;20423;49.448;9.056;2022-12-22T10:26:22;7.70;99.90
34147;DHT22;20423;49.448;9.056;2022-12-22T10:28:53;7.70;99.90
34147;DHT22;20423;49.448;9.056;2022-12-22T10:31:33;7.80;99.90
34147;DHT22;20423;49.448;9.056;2022-12-22T10:34:16;7.80;99.90
34147;DHT22;20423;49.448;9.056;2022-12-22T10:36:47;7.70;99.90
34147;DHT22;20423;49.448;9.056;2022-12-22T10:39:22;7.70;99.90
34147;DHT22;20423;49.448;9.056;2022-12-22T10:41:51;7.70;99.90
34147;DHT22;20423;49.448;9.056;2022-12-22T10:44:28;7.70;99.90
34147;DHT22;20423;49.448;9.056;2022-12-22T10:46:57;7.70;99.90
34147;DHT22;20423;49.448;9.056;2022-12-22T10:49:37;7.70;99.90
34147;DHT22;20423;49.448;9.056;2022-12-22T10:52:18;7.70;99.90
34147;DHT22;20423;49.448;9.056;2022-12-22T10:54:45;7.70;99.90
34147;DHT22;20423;49.448;9.056;2022-12-22T10:59:59;7.70;99.90
34147;DHT22;20423;49.448;9.056;2022-12-22T11:02:32;7.70;99.90
34147;DHT22;20423;49.448;9.056;2022-12-22T11:05:05;7.60;99.90
34147;DHT22;20423;49.448;9.056;2022-12-22T11:13:56;7.70;99.90
34147;DHT22;20423;49.448;9.056;2022-12-22T11:16:48;7.70;99.90
34147;DHT22;20423;49.448;9.056;2022-12-22T11:22:09;7.70;99.90
34147;DHT22;20423;49.448;9.056;2022-12-22T11:27:42;7.70;99.90
34147;DHT22;20423;49.448;9.056;2022-12-22T11:30:20;7.60;99.90
34147;DHT22;20423;49.448;9.056;2022-12-22T11:35:54;7.60;99.90
34147;DHT22;20423;49.448;9.056;2022-12-22T11:38:27;7.70;99.90
34147;DHT22;20423;49.448;9.056;2022-12-22T11:41:24;7.70;99.90
34147;DHT22;20423;49.448;9.056;2022-12-22T11:44:02;7.70;99.90
34147;DHT22;20423;49.448;9.056;2022-12-22T11:46:45;7.70;99.90
34147;DHT22;20423;49.448;9.056;2022-12-22T11:57:42;7.70;99.90
34147;DHT22;20423;49.448;9.056;2022-12-22T12:08:56;7.70;99.90
34147;DHT22;20423;49.448;9.056;2022-12-22T12:11:42;7.70;99.90
34147;DHT22;20423;49.448;9.056;2022-12-22T12:26:35;7.70;99.90
34147;DHT22;20423;49.448;9.056;2022-12-22T12:31:37;7.70;99.90
34147;DHT22;20423;49.448;9.056;2022-12-22T12:34:11;7.70;99.90
34147;DHT22;20423;49.448;9.056;2022-12-22T12:44:35;7.70;99.90
34147;DHT22;20423;49.448;9.056;2022-12-22T12:56:09;7.70;99.90
34147;DHT22;20423;49.448;9.056;2022-12-22T12:58:12;7.70;99.90
34147;DHT22;20423;49.448;9.056;2022-12-22T13:00:56;7.70;99.90
34147;DHT22;20423;49.448;9.056;2022-12-22T13:08:25;7.60;99.90
34147;DHT22;20423;49.448;9.056;2022-12-22T13:21:11;7.60;99.90
34147;DHT22;20423;49.448;9.056;2022-12-22T13:23:43;7.60;99.90
34147;DHT22;20423;49.448;9.056;2022-12-22T13:26:15;7.70;99.90
34147;DHT22;20423;49.448;9.056;2022-12-22T13:28:45;7.60;99.90
34147;DHT22;20423;49.448;9.056;2022-12-22T13:31:19;7.60;99.90
34147;DHT22;20423;49.448;9.056;2022-12-22T13:34:00;7.60;99.90
34147;DHT22;20423;49.448;9.056;2022-12-22T13:36:28;7.50;99.90
34147;DHT22;20423;49.448;9.056;2022-12-22T13:39:00;7.60;99.90
34147;DHT22;20423;49.448;9.056;2022-12-22T13:41:26;7.60;99.90
34147;DHT22;20423;49.448;9.056;2022-12-22T13:43:57;7.50;99.90
34147;DHT22;20423;49.448;9.056;2022-12-22T13:46:25;7.50;99.90
34147;DHT22;20423;49.448;9.056;2022-12-22T13:48:54;7.50;99.90
34147;DHT22;20423;49.448;9.056;2022-12-22T13:51:27;7.50;99.90
34147;DHT22;20423;49.448;9.056;2022-12-22T13:53:57;7.50;99.90
34147;DHT22;20423;49.448;9.056;2022-12-22T13:56:36;7.50;99.90
34147;DHT22;20423;49.448;9.056;2022-12-22T13:59:03;7.50;99.90
34147;DHT22;20423;49.448;9.056;2022-12-22T14:01:29;7.50;99.90
34147;DHT22;20423;49.448;9.056;2022-12-22T14:04:02;7.50;99.90
34147;DHT22;20423;49.448;9.056;2022-12-22T14:06:39;7.40;99.90
34147;DHT22;20423;49.448;9.056;2022-12-22T14:09:26;7.40;99.90
34147;DHT22;20423;49.448;9.056;2022-12-22T14:14:39;7.40;99.90
34147;DHT22;20423;49.448;9.056;2022-12-22T14:19:48;7.50;99.90
34147;DHT22;20423;49.448;9.056;2022-12-22T14:22:17;7.50;99.90
34147;DHT22;20423;49.448;9.056;2022-12-22T14:24:48;7.50;99.90
34147;DHT22;20423;49.448;9.056;2022-12-22T14:27:44;7.60;99.90
34147;DHT22;20423;49.448;9.056;2022-12-22T14:30:19;7.60;99.90
34147;DHT22;20423;49.448;9.056;2022-12-22T14:32:50;7.60;99.90
34147;DHT22;20423;49.448;9.056;2022-12-22T14:43:00;7.60;99.90
34147;DHT22;20423;49.448;9.056;2022-12-22T14:45:26;7.60;99.90
34147;DHT22;20423;49.448;9.056;2022-12-22T14:47:53;7.60;99.90
34147;DHT22;20423;49.448;9.056;2022-12-22T14:50:22;7.60;99.90
34147;DHT22;20423;49.448;9.056;2022-12-22T14:52:59;7.60;99.90
34147;DHT22;20423;49.448;9.056;2022-12-22T14:55:34;7.70;99.90
34147;DHT22;20423;49.448;9.056;2022-12-22T15:03:22;7.70;99.90
34147;DHT22;20423;49.448;9.056;2022-12-22T15:05:50;7.80;99.90
34147;DHT22;20423;49.448;9.056;2022-12-22T15:08:37;7.70;99.90
34147;DHT22;20423;49.448;9.056;2022-12-22T15:11:02;7.70;99.90
34147;DHT22;20423;49.448;9.056;2022-12-22T15:13:32;7.70;99.90
34147;DHT22;20423;49.448;9.056;2022-12-22T15:15:58;7.80;99.90
34147;DHT22;20423;49.448;9.056;2022-12-22T15:18:25;7.70;99.90
34147;DHT22;20423;49.448;9.056;2022-12-22T15:20:53;7.80;99.90
34147;DHT22;20423;49.448;9.056;2022-12-22T15:23:20;7.80;99.90
34147;DHT22;20423;49.448;9.056;2022-12-22T15:25:46;7.80;99.90
34147;DHT22;20423;49.448;9.056;2022-12-22T15:28:11;7.70;99.90
34147;DHT22;20423;49.448;9.056;2022-12-22T15:30:37;7.80;99.90
34147;DHT22;20423;49.448;9.056;2022-12-22T15:33:03;7.80;99.90
34147;DHT22;20423;49.448;9.056;2022-12-22T15:35:32;7.80;99.90
34147;DHT22;20423;49.448;9.056;2022-12-22T15:37:59;7.80;99.90
34147;DHT22;20423;49.448;9.056;2022-12-22T15:40:25;7.80;99.90
34147;DHT22;20423;49.448;9.056;2022-12-22T15:42:51;7.80;99.90
34147;DHT22;20423;49.448;9.056;2022-12-22T15:45:18;7.80;99.90
34147;DHT22;20423;49.448;9.056;2022-12-22T15:47:49;7.80;99.90
34147;DHT22;20423;49.448;9.056;2022-12-22T15:50:39;7.80;99.90
34147;DHT22;20423;49.448;9.056;2022-12-22T15:53:04;7.80;99.90
34147;DHT22;20423;49.448;9.056;2022-12-22T15:55:30;7.80;99.90
34147;DHT22;20423;49.448;9.056;2022-12-22T15:57:58;7.90;99.90
34147;DHT22;20423;49.448;9.056;2022-12-22T16:00:24;7.80;99.90
34147;DHT22;20423;49.448;9.056;2022-12-22T16:02:50;7.80;99.90
34147;DHT22;20423;49.448;9.056;2022-12-22T16:05:16;7.80;99.90
34147;DHT22;20423;49.448;9.056;2022-12-22T16:07:43;7.80;99.90
34147;DHT22;20423;49.448;9.056;2022-12-22T16:10:27;7.80;99.90
34147;DHT22;20423;49.448;9.056;2022-12-22T16:12:55;7.80;99.90
34147;DHT22;20423;49.448;9.056;2022-12-22T16:15:29;7.80;99.90
34147;DHT22;20423;49.448;9.056;2022-12-22T16:17:56;7.80;99.90
34147;DHT22;20423;49.448;9.056;2022-12-22T16:20:23;7.80;99.90
34147;DHT22;20423;49.448;9.056;2022-12-22T16:22:50;7.80;99.90
34147;DHT22;20423;49.448;9.056;2022-12-22T16:25:24;7.80;99.90
34147;DHT22;20423;49.448;9.056;2022-12-22T16:27:50;7.80;99.90
34147;DHT22;20423;49.448;9.056;2022-12-22T16:30:20;7.80;99.90
34147;DHT22;20423;49.448;9.056;2022-12-22T16:32:46;7.90;99.90
34147;DHT22;20423;49.448;9.056;2022-12-22T16:35:18;7.70;99.90
34147;DHT22;20423;49.448;9.056;2022-12-22T16:37:45;7.70;99.90
34147;DHT22;20423;49.448;9.056;2022-12-22T16:40:11;7.70;99.90
34147;DHT22;20423;49.448;9.056;2022-12-22T16:42:39;7.70;99.90
34147;DHT22;20423;49.448;9.056;2022-12-22T16:45:23;7.80;99.90
34147;DHT22;20423;49.448;9.056;2022-12-22T16:47:51;7.70;99.90
34147;DHT22;20423;49.448;9.056;2022-12-22T16:50:20;7.80;99.90
34147;DHT22;20423;49.448;9.056;2022-12-22T16:52:47;7.70;99.90
34147;DHT22;20423;49.448;9.056;2022-12-22T16:58:23;7.70;99.90
34147;DHT22;20423;49.448;9.056;2022-12-22T17:00:48;7.70;99.90
34147;DHT22;20423;49.448;9.056;2022-12-22T17:03:22;7.80;99.90
34147;DHT22;20423;49.448;9.056;2022-12-22T17:05:54;7.70;99.90
34147;DHT22;20423;49.448;9.056;2022-12-22T17:08:26;7.70;99.90
34147;DHT22;20423;49.448;9.056;2022-12-22T17:10:53;7.70;99.90
34147;DHT22;20423;49.448;9.056;2022-12-22T17:13:20;7.80;99.90
34147;DHT22;20423;49.448;9.056;2022-12-22T17:15:46;7.70;99.90
34147;DHT22;20423;49.448;9.056;2022-12-22T17:18:22;7.70;99.90
34147;DHT22;20423;49.448;9.056;2022-12-22T17:20:50;7.70;99.90
34147;DHT22;20423;49.448;9.056;2022-12-22T17:23:31;7.70;99.90
34147;DHT22;20423;49.448;9.056;2022-12-22T17:25:59;7.70;99.90
34147;DHT22;20423;49.448;9.056;2022-12-22T17:28:26;7.70;99.90
34147;DHT22;20423;49.448;9.056;2022-12-22T17:30:52;7.60;99.90
34147;DHT22;20423;49.448;9.056;2022-12-22T17:33:18;7.60;99.90
34147;DHT22;20423;49.448;9.056;2022-12-22T17:35:44;7.60;99.90
34147;DHT22;20423;49.448;9.056;2022-12-22T17:38:15;7.60;99.90
34147;DHT22;20423;49.448;9.056;2022-12-22T17:40:42;7.60;99.90
34147;DHT22;20423;49.448;9.056;2022-12-22T17:43:16;7.60;99.90
34147;DHT22;20423;49.448;9.056;2022-12-22T17:45:43;7.60;99.90
34147;DHT22;20423;49.448;9.056;2022-12-22T17:48:14;7.50;99.90
34147;DHT22;20423;49.448;9.056;2022-12-22T17:50:41;7.60;99.90
34147;DHT22;20423;49.448;9.056;2022-12-22T17:53:11;7.60;99.90
34147;DHT22;20423;49.448;9.056;2022-12-22T17:56:03;7.60;99.90
34147;DHT22;20423;49.448;9.056;2022-12-22T17:58:29;7.50;99.90
34147;DHT22;20423;49.448;9.056;2022-12-22T18:00:54;7.60;99.90
34147;DHT22;20423;49.448;9.056;2022-12-22T18:03:20;7.50;99.90
34147;DHT22;20423;49.448;9.056;2022-12-22T18:05:46;7.50;99.90
34147;DHT22;20423;49.448;9.056;2022-12-22T18:08:18;7.60;99.90
34147;DHT22;20423;49.448;9.056;2022-12-22T18:10:45;7.60;99.90
34147;DHT22;20423;49.448;9.056;2022-12-22T18:13:19;7.50;99.90
34147;DHT22;20423;49.448;9.056;2022-12-22T18:15:45;7.50;99.90
34147;DHT22;20423;49.448;9.056;2022-12-22T18:18:13;7.50;99.90
34147;DHT22;20423;49.448;9.056;2022-12-22T18:20:40;7.50;99.90
34147;DHT22;20423;49.448;9.056;2022-12-22T18:23:14;7.50;99.90
34147;DHT22;20423;49.448;9.056;2022-12-22T18:25:41;7.50;99.90
34147;DHT22;20423;49.448;9.056;2022-12-22T18:28:12;7.40;99.90